sensor_id;sensor_type;location;lat;lon;timestamp;P1;durP1;ratioP1;P2;durP2;ratioP2
9938;SDS011;5008;50.656;7.188;2022-07-09T00:00:09;2.70;;;2.50;;
9938;SDS011;5008;50.656;7.188;2022-07-09T00:02:36;2.53;;;2.33;;
9938;SDS011;5008;50.656;7.188;2022-07-09T00:05:04;2.88;;;2.58;;
9938;SDS011;5008;50.656;7.188;2022-07-09T00:07:31;4.80;;;3.03;;
9938;SDS011;5008;50.656;7.188;2022-07-09T00:09:58;2.60;;;2.40;;
9938;SDS011;5008;50.656;7.188;2022-07-09T00:12:24;2.80;;;2.53;;
9938;SDS011;5008;50.656;7.188;2022-07-09T00:14:51;2.53;;;2.33;;
9938;SDS011;5008;50.656;7.188;2022-07-09T00:17:19;3.70;;;2.60;;
9938;SDS011;5008;50.656;7.188;2022-07-09T00:19:46;2.45;;;2.25;;
9938;SDS011;5008;50.656;7.188;2022-07-09T00:22:13;3.83;;;2.80;;
9938;SDS011;5008;50.656;7.188;2022-07-09T00:24:39;2.47;;;2.30;;
9938;SDS011;5008;50.656;7.188;2022-07-09T00:27:06;3.03;;;2.72;;
9938;SDS011;5008;50.656;7.188;2022-07-09T00:29:33;2.95;;;2.63;;
9938;SDS011;5008;50.656;7.188;2022-07-09T00:32:00;2.63;;;2.42;;
9938;SDS011;5008;50.656;7.188;2022-07-09T00:34:28;2.88;;;2.45;;
9938;SDS011;5008;50.656;7.188;2022-07-09T00:36:55;2.70;;;2.50;;
9938;SDS011;5008;50.656;7.188;2022-07-09T00:39:22;2.60;;;2.40;;
9938;SDS011;5008;50.656;7.188;2022-07-09T00:41:48;2.78;;;2.58;;
9938;SDS011;5008;50.656;7.188;2022-07-09T00:44:15;2.60;;;2.40;;
9938;SDS011;5008;50.656;7.188;2022-07-09T00:46:42;2.47;;;2.28;;
9938;SDS011;5008;50.656;7.188;2022-07-09T00:49:09;3.65;;;2.47;;
9938;SDS011;5008;50.656;7.188;2022-07-09T00:51:37;2.70;;;2.50;;
9938;SDS011;5008;50.656;7.188;2022-07-09T00:54:05;2.47;;;2.28;;
9938;SDS011;5008;50.656;7.188;2022-07-09T00:56:33;3.20;;;2.63;;
9938;SDS011;5008;50.656;7.188;2022-07-09T00:59:00;2.97;;;2.47;;
9938;SDS011;5008;50.656;7.188;2022-07-09T01:01:32;2.60;;;2.35;;
9938;SDS011;5008;50.656;7.188;2022-07-09T01:04:00;2.45;;;2.25;;
9938;SDS011;5008;50.656;7.188;2022-07-09T01:06:27;2.97;;;2.47;;
9938;SDS011;5008;50.656;7.188;2022-07-09T01:08:55;3.28;;;2.78;;
9938;SDS011;5008;50.656;7.188;2022-07-09T01:11:22;3.97;;;2.60;;
9938;SDS011;5008;50.656;7.188;2022-07-09T01:13:49;3.30;;;2.70;;
9938;SDS011;5008;50.656;7.188;2022-07-09T01:16:16;2.63;;;2.42;;
9938;SDS011;5008;50.656;7.188;2022-07-09T01:18:45;3.05;;;2.70;;
9938;SDS011;5008;50.656;7.188;2022-07-09T01:21:13;2.38;;;2.20;;
9938;SDS011;5008;50.656;7.188;2022-07-09T01:23:41;2.75;;;2.53;;
9938;SDS011;5008;50.656;7.188;2022-07-09T01:26:08;2.70;;;2.50;;
9938;SDS011;5008;50.656;7.188;2022-07-09T01:28:35;2.72;;;2.42;;
9938;SDS011;5008;50.656;7.188;2022-07-09T01:31:02;3.25;;;2.47;;
9938;SDS011;5008;50.656;7.188;2022-07-09T01:33:29;2.78;;;2.58;;
9938;SDS011;5008;50.656;7.188;2022-07-09T01:35:57;2.75;;;2.55;;
9938;SDS011;5008;50.656;7.188;2022-07-09T01:38:25;2.65;;;2.45;;
9938;SDS011;5008;50.656;7.188;2022-07-09T01:40:51;2.70;;;2.50;;
9938;SDS011;5008;50.656;7.188;2022-07-09T01:43:18;3.20;;;2.45;;
9938;SDS011;5008;50.656;7.188;2022-07-09T01:45:45;2.70;;;2.50;;
9938;SDS011;5008;50.656;7.188;2022-07-09T01:48:13;4.32;;;2.83;;
9938;SDS011;5008;50.656;7.188;2022-07-09T01:50:40;3.65;;;2.90;;
9938;SDS011;5008;50.656;7.188;2022-07-09T01:53:07;2.65;;;2.45;;
9938;SDS011;5008;50.656;7.188;2022-07-09T01:55:35;3.33;;;2.67;;
9938;SDS011;5008;50.656;7.188;2022-07-09T01:58:01;4.28;;;2.40;;
9938;SDS011;5008;50.656;7.188;2022-07-09T02:00:31;2.60;;;2.45;;
9938;SDS011;5008;50.656;7.188;2022-07-09T02:02:57;2.90;;;2.67;;
9938;SDS011;5008;50.656;7.188;2022-07-09T02:05:24;3.63;;;2.80;;
9938;SDS011;5008;50.656;7.188;2022-07-09T02:07:51;3.35;;;2.60;;
9938;SDS011;5008;50.656;7.188;2022-07-09T02:10:18;2.90;;;2.70;;
9938;SDS011;5008;50.656;7.188;2022-07-09T02:12:46;2.80;;;2.60;;
9938;SDS011;5008;50.656;7.188;2022-07-09T02:15:13;2.55;;;2.35;;
9938;SDS011;5008;50.656;7.188;2022-07-09T02:17:39;3.53;;;2.42;;
9938;SDS011;5008;50.656;7.188;2022-07-09T02:20:07;3.88;;;2.40;;
9938;SDS011;5008;50.656;7.188;2022-07-09T02:22:35;3.22;;;2.45;;
9938;SDS011;5008;50.656;7.188;2022-07-09T02:25:02;3.70;;;2.75;;
9938;SDS011;5008;50.656;7.188;2022-07-09T02:27:29;2.58;;;2.38;;
9938;SDS011;5008;50.656;7.188;2022-07-09T02:29:57;2.70;;;2.30;;
9938;SDS011;5008;50.656;7.188;2022-07-09T02:32:24;2.33;;;2.20;;
9938;SDS011;5008;50.656;7.188;2022-07-09T02:34:50;2.53;;;2.33;;
9938;SDS011;5008;50.656;7.188;2022-07-09T02:37:17;3.40;;;2.80;;
9938;SDS011;5008;50.656;7.188;2022-07-09T02:39:44;2.85;;;2.60;;
9938;SDS011;5008;50.656;7.188;2022-07-09T02:42:10;3.97;;;2.28;;
9938;SDS011;5008;50.656;7.188;2022-07-09T02:44:37;3.75;;;2.22;;
9938;SDS011;5008;50.656;7.188;2022-07-09T02:47:06;2.65;;;2.45;;
9938;SDS011;5008;50.656;7.188;2022-07-09T02:49:33;2.95;;;2.63;;
9938;SDS011;5008;50.656;7.188;2022-07-09T02:52:00;2.67;;;2.47;;
9938;SDS011;5008;50.656;7.188;2022-07-09T02:54:27;2.80;;;2.45;;
9938;SDS011;5008;50.656;7.188;2022-07-09T02:56:53;5.80;;;2.40;;
9938;SDS011;5008;50.656;7.188;2022-07-09T02:59:20;3.30;;;2.70;;
9938;SDS011;5008;50.656;7.188;2022-07-09T03:01:47;3.97;;;2.70;;
9938;SDS011;5008;50.656;7.188;2022-07-09T03:04:15;2.80;;;2.45;;
9938;SDS011;5008;50.656;7.188;2022-07-09T03:06:42;2.90;;;2.60;;
9938;SDS011;5008;50.656;7.188;2022-07-09T03:09:09;4.10;;;2.53;;
9938;SDS011;5008;50.656;7.188;2022-07-09T03:11:36;3.35;;;2.50;;
9938;SDS011;5008;50.656;7.188;2022-07-09T03:14:03;3.75;;;2.60;;
9938;SDS011;5008;50.656;7.188;2022-07-09T03:16:29;2.90;;;2.50;;
9938;SDS011;5008;50.656;7.188;2022-07-09T03:18:56;3.28;;;2.97;;
9938;SDS011;5008;50.656;7.188;2022-07-09T03:21:24;2.55;;;2.35;;
9938;SDS011;5008;50.656;7.188;2022-07-09T03:23:51;2.78;;;2.53;;
9938;SDS011;5008;50.656;7.188;2022-07-09T03:26:18;2.95;;;2.40;;
9938;SDS011;5008;50.656;7.188;2022-07-09T03:28:44;2.83;;;2.35;;
9938;SDS011;5008;50.656;7.188;2022-07-09T03:31:11;2.72;;;2.53;;
9938;SDS011;5008;50.656;7.188;2022-07-09T03:33:38;2.60;;;2.40;;
9938;SDS011;5008;50.656;7.188;2022-07-09T03:36:05;5.07;;;2.85;;
9938;SDS011;5008;50.656;7.188;2022-07-09T03:38:33;3.22;;;2.63;;
9938;SDS011;5008;50.656;7.188;2022-07-09T03:41:00;2.97;;;2.63;;
9938;SDS011;5008;50.656;7.188;2022-07-09T03:43:27;3.15;;;2.70;;
9938;SDS011;5008;50.656;7.188;2022-07-09T03:45:54;3.53;;;2.50;;
9938;SDS011;5008;50.656;7.188;2022-07-09T03:48:20;3.35;;;2.83;;
9938;SDS011;5008;50.656;7.188;2022-07-09T03:50:47;2.72;;;2.53;;
9938;SDS011;5008;50.656;7.188;2022-07-09T03:53:14;2.72;;;2.53;;
9938;SDS011;5008;50.656;7.188;2022-07-09T03:55:42;3.08;;;2.80;;
9938;SDS011;5008;50.656;7.188;2022-07-09T03:58:08;3.40;;;3.10;;
9938;SDS011;5008;50.656;7.188;2022-07-09T04:00:35;2.75;;;2.55;;
9938;SDS011;5008;50.656;7.188;2022-07-09T04:03:02;5.05;;;2.72;;
9938;SDS011;5008;50.656;7.188;2022-07-09T04:05:29;2.75;;;2.55;;
9938;SDS011;5008;50.656;7.188;2022-07-09T04:07:56;3.13;;;2.83;;
9938;SDS011;5008;50.656;7.188;2022-07-09T04:10:23;3.00;;;2.70;;
9938;SDS011;5008;50.656;7.188;2022-07-09T04:12:51;2.97;;;2.67;;
9938;SDS011;5008;50.656;7.188;2022-07-09T04:15:18;3.58;;;2.90;;
9938;SDS011;5008;50.656;7.188;2022-07-09T04:17:45;3.45;;;2.97;;
9938;SDS011;5008;50.656;7.188;2022-07-09T04:20:11;3.30;;;3.00;;
9938;SDS011;5008;50.656;7.188;2022-07-09T04:22:38;3.30;;;3.00;;
9938;SDS011;5008;50.656;7.188;2022-07-09T04:25:05;3.85;;;2.70;;
9938;SDS011;5008;50.656;7.188;2022-07-09T04:27:32;3.60;;;2.95;;
9938;SDS011;5008;50.656;7.188;2022-07-09T04:30:02;3.20;;;2.90;;
9938;SDS011;5008;50.656;7.188;2022-07-09T04:32:29;3.85;;;3.30;;
9938;SDS011;5008;50.656;7.188;2022-07-09T04:34:56;3.70;;;2.75;;
9938;SDS011;5008;50.656;7.188;2022-07-09T04:37:23;3.13;;;2.67;;
9938;SDS011;5008;50.656;7.188;2022-07-09T04:39:49;3.90;;;3.10;;
9938;SDS011;5008;50.656;7.188;2022-07-09T04:42:16;3.20;;;2.90;;
9938;SDS011;5008;50.656;7.188;2022-07-09T04:44:44;3.00;;;2.80;;
9938;SDS011;5008;50.656;7.188;2022-07-09T04:47:12;3.40;;;3.10;;
9938;SDS011;5008;50.656;7.188;2022-07-09T04:49:39;3.30;;;3.00;;
9938;SDS011;5008;50.656;7.188;2022-07-09T04:52:06;4.45;;;2.85;;
9938;SDS011;5008;50.656;7.188;2022-07-09T04:54:33;3.90;;;3.60;;
9938;SDS011;5008;50.656;7.188;2022-07-09T04:57:00;3.45;;;3.15;;
9938;SDS011;5008;50.656;7.188;2022-07-09T04:59:26;3.03;;;2.83;;
9938;SDS011;5008;50.656;7.188;2022-07-09T05:01:53;3.50;;;3.20;;
9938;SDS011;5008;50.656;7.188;2022-07-09T05:04:21;3.60;;;3.10;;
9938;SDS011;5008;50.656;7.188;2022-07-09T05:06:48;3.67;;;3.38;;
9938;SDS011;5008;50.656;7.188;2022-07-09T05:09:15;4.47;;;4.18;;
9938;SDS011;5008;50.656;7.188;2022-07-09T05:11:41;3.72;;;3.10;;
9938;SDS011;5008;50.656;7.188;2022-07-09T05:14:08;3.90;;;3.50;;
9938;SDS011;5008;50.656;7.188;2022-07-09T05:16:35;4.90;;;4.40;;
9938;SDS011;5008;50.656;7.188;2022-07-09T05:19:02;4.95;;;3.90;;
9938;SDS011;5008;50.656;7.188;2022-07-09T05:21:30;4.65;;;4.22;;
9938;SDS011;5008;50.656;7.188;2022-07-09T05:23:56;4.70;;;4.20;;
9938;SDS011;5008;50.656;7.188;2022-07-09T05:26:26;4.38;;;3.97;;
9938;SDS011;5008;50.656;7.188;2022-07-09T05:28:54;4.30;;;3.95;;
9938;SDS011;5008;50.656;7.188;2022-07-09T05:31:21;4.47;;;4.07;;
9938;SDS011;5008;50.656;7.188;2022-07-09T05:33:48;4.35;;;3.92;;
9938;SDS011;5008;50.656;7.188;2022-07-09T05:36:14;4.20;;;3.80;;
9938;SDS011;5008;50.656;7.188;2022-07-09T05:38:43;4.78;;;3.95;;
9938;SDS011;5008;50.656;7.188;2022-07-09T05:41:10;6.72;;;4.13;;
9938;SDS011;5008;50.656;7.188;2022-07-09T05:43:37;4.95;;;4.13;;
9938;SDS011;5008;50.656;7.188;2022-07-09T05:46:04;4.20;;;3.80;;
9938;SDS011;5008;50.656;7.188;2022-07-09T05:48:30;4.57;;;3.80;;
9938;SDS011;5008;50.656;7.188;2022-07-09T05:50:57;5.32;;;4.28;;
9938;SDS011;5008;50.656;7.188;2022-07-09T05:53:24;4.40;;;4.00;;
9938;SDS011;5008;50.656;7.188;2022-07-09T05:55:52;5.63;;;3.80;;
9938;SDS011;5008;50.656;7.188;2022-07-09T05:58:19;4.68;;;4.15;;
9938;SDS011;5008;50.656;7.188;2022-07-09T06:00:45;4.40;;;4.10;;
9938;SDS011;5008;50.656;7.188;2022-07-09T06:03:12;4.63;;;4.10;;
9938;SDS011;5008;50.656;7.188;2022-07-09T06:05:39;4.40;;;4.00;;
9938;SDS011;5008;50.656;7.188;2022-07-09T06:08:05;4.78;;;4.00;;
9938;SDS011;5008;50.656;7.188;2022-07-09T06:10:34;4.65;;;4.05;;
9938;SDS011;5008;50.656;7.188;2022-07-09T06:13:02;4.47;;;3.83;;
9938;SDS011;5008;50.656;7.188;2022-07-09T06:15:29;4.43;;;3.80;;
9938;SDS011;5008;50.656;7.188;2022-07-09T06:17:56;5.72;;;3.90;;
9938;SDS011;5008;50.656;7.188;2022-07-09T06:20:22;5.68;;;3.90;;
9938;SDS011;5008;50.656;7.188;2022-07-09T06:22:49;3.88;;;3.47;;
9938;SDS011;5008;50.656;7.188;2022-07-09T06:25:16;3.95;;;3.65;;
9938;SDS011;5008;50.656;7.188;2022-07-09T06:27:43;4.43;;;4.03;;
9938;SDS011;5008;50.656;7.188;2022-07-09T06:30:11;3.90;;;3.60;;
9938;SDS011;5008;50.656;7.188;2022-07-09T06:32:38;3.90;;;3.58;;
9938;SDS011;5008;50.656;7.188;2022-07-09T06:35:05;5.40;;;3.90;;
9938;SDS011;5008;50.656;7.188;2022-07-09T06:37:32;5.88;;;3.92;;
9938;SDS011;5008;50.656;7.188;2022-07-09T06:39:59;4.05;;;3.58;;
9938;SDS011;5008;50.656;7.188;2022-07-09T06:42:26;4.10;;;3.67;;
9938;SDS011;5008;50.656;7.188;2022-07-09T06:44:53;5.60;;;3.67;;
9938;SDS011;5008;50.656;7.188;2022-07-09T06:47:21;5.50;;;3.53;;
9938;SDS011;5008;50.656;7.188;2022-07-09T06:49:47;4.38;;;3.97;;
9938;SDS011;5008;50.656;7.188;2022-07-09T06:52:14;5.45;;;3.97;;
9938;SDS011;5008;50.656;7.188;2022-07-09T06:54:41;4.28;;;3.80;;
9938;SDS011;5008;50.656;7.188;2022-07-09T06:57:08;5.53;;;3.83;;
9938;SDS011;5008;50.656;7.188;2022-07-09T06:59:35;6.80;;;4.28;;
9938;SDS011;5008;50.656;7.188;2022-07-09T07:02:02;6.60;;;3.97;;
9938;SDS011;5008;50.656;7.188;2022-07-09T07:04:31;4.72;;;4.00;;
9938;SDS011;5008;50.656;7.188;2022-07-09T07:06:58;5.35;;;3.90;;
9938;SDS011;5008;50.656;7.188;2022-07-09T07:09:24;4.75;;;4.15;;
9938;SDS011;5008;50.656;7.188;2022-07-09T07:11:51;4.65;;;3.70;;
9938;SDS011;5008;50.656;7.188;2022-07-09T07:14:18;4.35;;;3.95;;
9938;SDS011;5008;50.656;7.188;2022-07-09T07:16:45;3.78;;;3.47;;
9938;SDS011;5008;50.656;7.188;2022-07-09T07:19:12;3.53;;;3.22;;
9938;SDS011;5008;50.656;7.188;2022-07-09T07:21:40;2.63;;;2.42;;
9938;SDS011;5008;50.656;7.188;2022-07-09T07:24:07;5.38;;;3.78;;
9938;SDS011;5008;50.656;7.188;2022-07-09T07:26:34;4.60;;;4.20;;
9938;SDS011;5008;50.656;7.188;2022-07-09T07:29:02;5.63;;;4.50;;
9938;SDS011;5008;50.656;7.188;2022-07-09T07:31:29;6.32;;;4.90;;
9938;SDS011;5008;50.656;7.188;2022-07-09T07:33:56;6.38;;;5.25;;
9938;SDS011;5008;50.656;7.188;2022-07-09T07:36:24;4.10;;;3.55;;
9938;SDS011;5008;50.656;7.188;2022-07-09T07:38:53;5.75;;;5.30;;
9938;SDS011;5008;50.656;7.188;2022-07-09T07:41:20;7.72;;;5.90;;
9938;SDS011;5008;50.656;7.188;2022-07-09T07:43:47;6.78;;;4.75;;
9938;SDS011;5008;50.656;7.188;2022-07-09T07:46:14;8.65;;;6.57;;
9938;SDS011;5008;50.656;7.188;2022-07-09T07:48:41;7.28;;;6.15;;
9938;SDS011;5008;50.656;7.188;2022-07-09T07:51:08;7.60;;;6.90;;
9938;SDS011;5008;50.656;7.188;2022-07-09T07:53:35;7.40;;;6.70;;
9938;SDS011;5008;50.656;7.188;2022-07-09T07:56:04;7.65;;;6.10;;
9938;SDS011;5008;50.656;7.188;2022-07-09T07:58:32;8.98;;;6.75;;
9938;SDS011;5008;50.656;7.188;2022-07-09T08:01:00;6.85;;;6.25;;
9938;SDS011;5008;50.656;7.188;2022-07-09T08:03:27;7.95;;;7.25;;
9938;SDS011;5008;50.656;7.188;2022-07-09T08:05:53;7.88;;;7.13;;
9938;SDS011;5008;50.656;7.188;2022-07-09T08:08:20;3.85;;;3.55;;
9938;SDS011;5008;50.656;7.188;2022-07-09T08:10:47;5.80;;;5.30;;
9938;SDS011;5008;50.656;7.188;2022-07-09T08:13:15;5.20;;;4.22;;
9938;SDS011;5008;50.656;7.188;2022-07-09T08:15:43;5.72;;;4.65;;
9938;SDS011;5008;50.656;7.188;2022-07-09T08:18:10;6.15;;;4.82;;
9938;SDS011;5008;50.656;7.188;2022-07-09T08:20:39;5.60;;;5.13;;
9938;SDS011;5008;50.656;7.188;2022-07-09T08:23:06;6.07;;;4.30;;
9938;SDS011;5008;50.656;7.188;2022-07-09T08:25:33;8.80;;;5.60;;
9938;SDS011;5008;50.656;7.188;2022-07-09T08:28:00;4.95;;;4.38;;
9938;SDS011;5008;50.656;7.188;2022-07-09T08:30:28;5.85;;;3.72;;
9938;SDS011;5008;50.656;7.188;2022-07-09T08:32:55;7.13;;;5.05;;
9938;SDS011;5008;50.656;7.188;2022-07-09T08:35:22;5.97;;;4.90;;
9938;SDS011;5008;50.656;7.188;2022-07-09T08:37:50;5.03;;;4.57;;
9938;SDS011;5008;50.656;7.188;2022-07-09T08:40:17;6.00;;;4.38;;
9938;SDS011;5008;50.656;7.188;2022-07-09T08:42:44;4.15;;;3.75;;
9938;SDS011;5008;50.656;7.188;2022-07-09T08:45:11;4.28;;;3.80;;
9938;SDS011;5008;50.656;7.188;2022-07-09T08:47:40;5.22;;;3.90;;
9938;SDS011;5008;50.656;7.188;2022-07-09T08:50:08;6.00;;;3.60;;
9938;SDS011;5008;50.656;7.188;2022-07-09T08:52:35;8.15;;;3.53;;
9938;SDS011;5008;50.656;7.188;2022-07-09T08:55:03;4.10;;;3.70;;
9938;SDS011;5008;50.656;7.188;2022-07-09T08:57:32;3.58;;;3.25;;
9938;SDS011;5008;50.656;7.188;2022-07-09T08:59:59;3.80;;;3.50;;
9938;SDS011;5008;50.656;7.188;2022-07-09T09:02:33;4.82;;;3.20;;
9938;SDS011;5008;50.656;7.188;2022-07-09T09:05:02;3.47;;;3.17;;
9938;SDS011;5008;50.656;7.188;2022-07-09T09:07:33;4.10;;;3.70;;
9938;SDS011;5008;50.656;7.188;2022-07-09T09:10:00;3.70;;;2.83;;
9938;SDS011;5008;50.656;7.188;2022-07-09T09:12:27;3.95;;;3.15;;
9938;SDS011;5008;50.656;7.188;2022-07-09T09:14:54;4.45;;;3.35;;
9938;SDS011;5008;50.656;7.188;2022-07-09T09:17:21;3.25;;;3.03;;
9938;SDS011;5008;50.656;7.188;2022-07-09T09:19:49;5.53;;;2.90;;
9938;SDS011;5008;50.656;7.188;2022-07-09T09:22:17;3.95;;;3.38;;
9938;SDS011;5008;50.656;7.188;2022-07-09T09:24:48;3.97;;;3.00;;
9938;SDS011;5008;50.656;7.188;2022-07-09T09:27:15;4.82;;;2.97;;
9938;SDS011;5008;50.656;7.188;2022-07-09T09:29:48;3.03;;;2.70;;
9938;SDS011;5008;50.656;7.188;2022-07-09T09:32:18;3.50;;;2.88;;
9938;SDS011;5008;50.656;7.188;2022-07-09T09:34:49;2.83;;;2.58;;
9938;SDS011;5008;50.656;7.188;2022-07-09T09:37:25;4.05;;;2.70;;
9938;SDS011;5008;50.656;7.188;2022-07-09T09:39:53;3.17;;;2.88;;
9938;SDS011;5008;50.656;7.188;2022-07-09T09:42:20;2.58;;;2.38;;
9938;SDS011;5008;50.656;7.188;2022-07-09T09:44:50;2.65;;;2.45;;
9938;SDS011;5008;50.656;7.188;2022-07-09T09:47:18;2.83;;;2.63;;
9938;SDS011;5008;50.656;7.188;2022-07-09T09:49:49;2.88;;;2.60;;
9938;SDS011;5008;50.656;7.188;2022-07-09T09:52:16;3.00;;;2.75;;
9938;SDS011;5008;50.656;7.188;2022-07-09T09:54:47;3.63;;;2.50;;
9938;SDS011;5008;50.656;7.188;2022-07-09T09:57:14;4.50;;;2.58;;
9938;SDS011;5008;50.656;7.188;2022-07-09T09:59:43;2.65;;;2.45;;
9938;SDS011;5008;50.656;7.188;2022-07-09T10:02:11;2.85;;;2.33;;
9938;SDS011;5008;50.656;7.188;2022-07-09T10:04:39;2.63;;;2.40;;
9938;SDS011;5008;50.656;7.188;2022-07-09T10:07:07;2.42;;;2.28;;
9938;SDS011;5008;50.656;7.188;2022-07-09T10:09:36;4.07;;;2.30;;
9938;SDS011;5008;50.656;7.188;2022-07-09T10:12:05;3.20;;;2.35;;
9938;SDS011;5008;50.656;7.188;2022-07-09T10:14:35;2.55;;;2.35;;
9938;SDS011;5008;50.656;7.188;2022-07-09T10:17:10;2.40;;;2.20;;
9938;SDS011;5008;50.656;7.188;2022-07-09T10:19:39;2.05;;;1.95;;
9938;SDS011;5008;50.656;7.188;2022-07-09T10:22:17;2.60;;;2.33;;
9938;SDS011;5008;50.656;7.188;2022-07-09T10:24:44;2.40;;;2.15;;
9938;SDS011;5008;50.656;7.188;2022-07-09T10:27:13;4.10;;;2.40;;
9938;SDS011;5008;50.656;7.188;2022-07-09T10:29:52;2.25;;;2.13;;
9938;SDS011;5008;50.656;7.188;2022-07-09T10:32:26;2.30;;;2.10;;
9938;SDS011;5008;50.656;7.188;2022-07-09T10:34:57;2.30;;;2.10;;
9938;SDS011;5008;50.656;7.188;2022-07-09T10:37:34;3.58;;;2.00;;
9938;SDS011;5008;50.656;7.188;2022-07-09T10:40:12;2.50;;;2.30;;
9938;SDS011;5008;50.656;7.188;2022-07-09T10:42:41;3.08;;;1.80;;
9938;SDS011;5008;50.656;7.188;2022-07-09T10:45:24;2.17;;;1.98;;
9938;SDS011;5008;50.656;7.188;2022-07-09T10:47:55;2.22;;;2.00;;
9938;SDS011;5008;50.656;7.188;2022-07-09T10:50:24;2.10;;;1.90;;
9938;SDS011;5008;50.656;7.188;2022-07-09T10:52:52;2.03;;;1.92;;
9938;SDS011;5008;50.656;7.188;2022-07-09T10:55:20;1.73;;;1.55;;
9938;SDS011;5008;50.656;7.188;2022-07-09T10:57:49;3.45;;;1.63;;
9938;SDS011;5008;50.656;7.188;2022-07-09T11:00:16;1.95;;;1.73;;
9938;SDS011;5008;50.656;7.188;2022-07-09T11:02:54;2.05;;;1.70;;
9938;SDS011;5008;50.656;7.188;2022-07-09T11:05:22;2.80;;;1.58;;
9938;SDS011;5008;50.656;7.188;2022-07-09T11:07:53;1.85;;;1.73;;
9938;SDS011;5008;50.656;7.188;2022-07-09T11:10:24;2.05;;;1.90;;
9938;SDS011;5008;50.656;7.188;2022-07-09T11:13:05;2.15;;;1.58;;
9938;SDS011;5008;50.656;7.188;2022-07-09T11:15:34;1.65;;;1.55;;
9938;SDS011;5008;50.656;7.188;2022-07-09T11:18:02;1.50;;;1.40;;
9938;SDS011;5008;50.656;7.188;2022-07-09T11:20:30;3.03;;;1.88;;
9938;SDS011;5008;50.656;7.188;2022-07-09T11:22:58;2.00;;;1.90;;
9938;SDS011;5008;50.656;7.188;2022-07-09T11:25:26;3.63;;;2.67;;
9938;SDS011;5008;50.656;7.188;2022-07-09T11:27:54;2.45;;;2.25;;
9938;SDS011;5008;50.656;7.188;2022-07-09T11:30:22;1.98;;;1.80;;
9938;SDS011;5008;50.656;7.188;2022-07-09T11:32:52;2.30;;;1.70;;
9938;SDS011;5008;50.656;7.188;2022-07-09T11:35:25;1.73;;;1.63;;
9938;SDS011;5008;50.656;7.188;2022-07-09T11:37:53;2.92;;;1.85;;
9938;SDS011;5008;50.656;7.188;2022-07-09T11:40:21;2.53;;;1.80;;
9938;SDS011;5008;50.656;7.188;2022-07-09T11:42:49;2.83;;;2.10;;
9938;SDS011;5008;50.656;7.188;2022-07-09T11:45:20;1.70;;;1.55;;
9938;SDS011;5008;50.656;7.188;2022-07-09T11:47:49;1.77;;;1.67;;
9938;SDS011;5008;50.656;7.188;2022-07-09T11:50:17;2.03;;;1.83;;
9938;SDS011;5008;50.656;7.188;2022-07-09T11:52:45;3.20;;;2.05;;
9938;SDS011;5008;50.656;7.188;2022-07-09T11:55:14;1.70;;;1.60;;
9938;SDS011;5008;50.656;7.188;2022-07-09T11:57:50;2.55;;;1.70;;
9938;SDS011;5008;50.656;7.188;2022-07-09T12:00:25;2.22;;;1.85;;
9938;SDS011;5008;50.656;7.188;2022-07-09T12:02:53;1.88;;;1.77;;
9938;SDS011;5008;50.656;7.188;2022-07-09T12:05:24;2.10;;;1.90;;
9938;SDS011;5008;50.656;7.188;2022-07-09T12:07:54;2.08;;;1.90;;
9938;SDS011;5008;50.656;7.188;2022-07-09T12:10:25;1.98;;;1.88;;
9938;SDS011;5008;50.656;7.188;2022-07-09T12:12:54;1.85;;;1.60;;
9938;SDS011;5008;50.656;7.188;2022-07-09T12:15:22;2.45;;;1.92;;
9938;SDS011;5008;50.656;7.188;2022-07-09T12:17:50;1.70;;;1.60;;
9938;SDS011;5008;50.656;7.188;2022-07-09T12:20:19;1.90;;;1.80;;
9938;SDS011;5008;50.656;7.188;2022-07-09T12:22:47;2.22;;;1.70;;
9938;SDS011;5008;50.656;7.188;2022-07-09T12:25:14;1.77;;;1.67;;
9938;SDS011;5008;50.656;7.188;2022-07-09T12:27:41;2.20;;;2.00;;
9938;SDS011;5008;50.656;7.188;2022-07-09T12:30:08;2.53;;;1.80;;
9938;SDS011;5008;50.656;7.188;2022-07-09T12:32:37;1.85;;;1.70;;
9938;SDS011;5008;50.656;7.188;2022-07-09T12:35:05;2.83;;;1.88;;
9938;SDS011;5008;50.656;7.188;2022-07-09T12:37:33;2.00;;;1.83;;
9938;SDS011;5008;50.656;7.188;2022-07-09T12:40:00;2.30;;;1.80;;
9938;SDS011;5008;50.656;7.188;2022-07-09T12:42:27;1.83;;;1.73;;
9938;SDS011;5008;50.656;7.188;2022-07-09T12:44:53;3.63;;;1.73;;
9938;SDS011;5008;50.656;7.188;2022-07-09T12:47:20;4.53;;;2.10;;
9938;SDS011;5008;50.656;7.188;2022-07-09T12:49:48;2.22;;;1.80;;
9938;SDS011;5008;50.656;7.188;2022-07-09T12:52:15;2.08;;;1.73;;
9938;SDS011;5008;50.656;7.188;2022-07-09T12:54:42;2.30;;;2.10;;
9938;SDS011;5008;50.656;7.188;2022-07-09T12:57:09;1.45;;;1.35;;
9938;SDS011;5008;50.656;7.188;2022-07-09T12:59:36;2.45;;;2.25;;
9938;SDS011;5008;50.656;7.188;2022-07-09T13:02:03;2.10;;;1.90;;
9938;SDS011;5008;50.656;7.188;2022-07-09T13:04:31;2.20;;;2.00;;
9938;SDS011;5008;50.656;7.188;2022-07-09T13:06:59;2.10;;;2.00;;
9938;SDS011;5008;50.656;7.188;2022-07-09T13:09:27;1.80;;;1.70;;
9938;SDS011;5008;50.656;7.188;2022-07-09T13:11:54;3.22;;;1.90;;
9938;SDS011;5008;50.656;7.188;2022-07-09T13:14:21;4.20;;;2.22;;
9938;SDS011;5008;50.656;7.188;2022-07-09T13:16:47;2.10;;;1.90;;
9938;SDS011;5008;50.656;7.188;2022-07-09T13:19:14;2.50;;;2.05;;
9938;SDS011;5008;50.656;7.188;2022-07-09T13:21:41;1.85;;;1.65;;
9938;SDS011;5008;50.656;7.188;2022-07-09T13:24:09;2.15;;;2.05;;
9938;SDS011;5008;50.656;7.188;2022-07-09T13:26:36;2.00;;;1.83;;
9938;SDS011;5008;50.656;7.188;2022-07-09T13:29:03;2.28;;;1.70;;
9938;SDS011;5008;50.656;7.188;2022-07-09T13:31:29;2.30;;;2.10;;
9938;SDS011;5008;50.656;7.188;2022-07-09T13:33:56;2.35;;;2.10;;
9938;SDS011;5008;50.656;7.188;2022-07-09T13:36:23;3.20;;;2.20;;
9938;SDS011;5008;50.656;7.188;2022-07-09T13:38:50;3.90;;;2.25;;
9938;SDS011;5008;50.656;7.188;2022-07-09T13:41:18;2.08;;;1.88;;
9938;SDS011;5008;50.656;7.188;2022-07-09T13:43:45;2.38;;;2.25;;
9938;SDS011;5008;50.656;7.188;2022-07-09T13:46:18;2.50;;;2.30;;
9938;SDS011;5008;50.656;7.188;2022-07-09T13:48:44;2.55;;;2.35;;
9938;SDS011;5008;50.656;7.188;2022-07-09T13:51:11;2.45;;;2.25;;
9938;SDS011;5008;50.656;7.188;2022-07-09T13:53:38;2.50;;;2.28;;
9938;SDS011;5008;50.656;7.188;2022-07-09T13:56:05;2.28;;;2.08;;
9938;SDS011;5008;50.656;7.188;2022-07-09T13:58:34;2.58;;;2.38;;
9938;SDS011;5008;50.656;7.188;2022-07-09T14:01:01;2.88;;;2.55;;
9938;SDS011;5008;50.656;7.188;2022-07-09T14:03:28;4.70;;;3.35;;
9938;SDS011;5008;50.656;7.188;2022-07-09T14:05:55;3.55;;;3.25;;
9938;SDS011;5008;50.656;7.188;2022-07-09T14:08:21;3.15;;;2.80;;
9938;SDS011;5008;50.656;7.188;2022-07-09T14:10:50;4.72;;;3.53;;
9938;SDS011;5008;50.656;7.188;2022-07-09T14:13:22;3.67;;;3.38;;
9938;SDS011;5008;50.656;7.188;2022-07-09T14:15:52;4.00;;;3.38;;
9938;SDS011;5008;50.656;7.188;2022-07-09T14:18:19;5.32;;;4.20;;
9938;SDS011;5008;50.656;7.188;2022-07-09T14:20:46;8.43;;;5.53;;
9938;SDS011;5008;50.656;7.188;2022-07-09T14:23:13;5.57;;;5.05;;
9938;SDS011;5008;50.656;7.188;2022-07-09T14:25:40;5.25;;;4.85;;
9938;SDS011;5008;50.656;7.188;2022-07-09T14:28:07;5.53;;;5.03;;
9938;SDS011;5008;50.656;7.188;2022-07-09T14:30:34;5.72;;;5.22;;
9938;SDS011;5008;50.656;7.188;2022-07-09T14:33:05;5.90;;;5.40;;
9938;SDS011;5008;50.656;7.188;2022-07-09T14:35:32;7.07;;;6.47;;
9938;SDS011;5008;50.656;7.188;2022-07-09T14:37:59;7.25;;;6.55;;
9938;SDS011;5008;50.656;7.188;2022-07-09T14:40:25;7.55;;;6.93;;
9938;SDS011;5008;50.656;7.188;2022-07-09T14:42:55;8.73;;;7.85;;
9938;SDS011;5008;50.656;7.188;2022-07-09T14:45:22;8.88;;;8.00;;
9938;SDS011;5008;50.656;7.188;2022-07-09T14:47:51;8.05;;;7.35;;
9938;SDS011;5008;50.656;7.188;2022-07-09T14:50:19;8.52;;;7.75;;
9938;SDS011;5008;50.656;7.188;2022-07-09T14:52:46;14.52;;;13.07;;
9938;SDS011;5008;50.656;7.188;2022-07-09T14:55:15;17.17;;;15.77;;
9938;SDS011;5008;50.656;7.188;2022-07-09T14:57:43;16.15;;;14.65;;
9938;SDS011;5008;50.656;7.188;2022-07-09T15:00:10;19.92;;;17.98;;
9938;SDS011;5008;50.656;7.188;2022-07-09T15:02:37;19.63;;;17.63;;
9938;SDS011;5008;50.656;7.188;2022-07-09T15:05:05;12.85;;;11.65;;
9938;SDS011;5008;50.656;7.188;2022-07-09T15:07:33;10.43;;;9.45;;
9938;SDS011;5008;50.656;7.188;2022-07-09T15:10:02;12.15;;;10.95;;
9938;SDS011;5008;50.656;7.188;2022-07-09T15:12:29;9.85;;;9.05;;
9938;SDS011;5008;50.656;7.188;2022-07-09T15:14:56;12.10;;;10.90;;
9938;SDS011;5008;50.656;7.188;2022-07-09T15:17:24;9.75;;;8.95;;